createdAt,value
2022-11-24T00:01:27.971Z,100.00
2022-11-24T00:04:42.833Z,100.00
2022-11-24T00:07:51.939Z,100.00
2022-11-24T00:11:12.658Z,100.00
2022-11-24T00:14:27.829Z,100.00
2022-11-24T00:17:42.841Z,100.00
2022-11-24T00:20:54.505Z,100.00
2022-11-24T00:24:02.825Z,100.00
2022-11-24T00:27:17.826Z,100.00
2022-11-24T00:30:40.873Z,100.00
2022-11-24T00:33:51.979Z,100.00
2022-11-24T00:37:06.818Z,100.00
2022-11-24T00:40:21.842Z,100.00
2022-11-24T00:43:29.818Z,100.00
2022-11-24T00:46:38.903Z,100.00
2022-11-24T00:49:47.841Z,100.00
2022-11-24T00:53:02.835Z,100.00
2022-11-24T00:56:12.353Z,100.00
2022-11-24T00:59:26.816Z,100.00
2022-11-24T01:02:34.880Z,100.00
2022-11-24T01:05:49.832Z,100.00
2022-11-24T01:09:04.813Z,100.00
2022-11-24T01:12:20.846Z,100.00
2022-11-24T01:15:22.947Z,100.00
2022-11-24T01:18:37.829Z,100.00
2022-11-24T01:21:40.218Z,100.00
2022-11-24T01:24:54.859Z,100.00
2022-11-24T01:28:16.800Z,100.00
2022-11-24T01:31:33.842Z,100.00
2022-11-24T01:34:48.824Z,100.00
2022-11-24T01:37:50.757Z,100.00
2022-11-24T01:41:12.833Z,100.00
2022-11-24T01:44:26.993Z,100.00
2022-11-24T01:47:45.804Z,100.00
2022-11-24T01:50:53.394Z,100.00
2022-11-24T01:54:13.812Z,100.00
2022-11-24T01:57:36.817Z,100.00
2022-11-24T02:00:40.803Z,100.00
2022-11-24T02:03:59.848Z,100.00
2022-11-24T02:07:05.584Z,100.00
2022-11-24T02:10:22.830Z,100.00
2022-11-24T02:13:25.194Z,100.00
2022-11-24T02:16:43.834Z,100.00
2022-11-24T02:20:07.913Z,100.00
2022-11-24T02:23:24.425Z,100.00
2022-11-24T02:26:50.828Z,100.00
2022-11-24T02:30:06.508Z,100.00
2022-11-24T02:33:17.804Z,100.00
2022-11-24T02:36:26.436Z,100.00
2022-11-24T02:39:34.838Z,100.00
2022-11-24T02:42:52.858Z,100.00
2022-11-24T02:45:54.865Z,100.00
2022-11-24T02:49:09.823Z,100.00
2022-11-24T02:52:25.807Z,100.00
2022-11-24T02:55:33.849Z,100.00
2022-11-24T02:58:42.424Z,100.00
2022-11-24T03:01:56.898Z,100.00
2022-11-24T03:05:05.818Z,100.00
2022-11-24T03:08:14.409Z,100.00
2022-11-24T03:11:22.833Z,100.00
2022-11-24T03:14:31.732Z,100.00
2022-11-24T03:17:40.819Z,100.00
2022-11-24T03:20:55.825Z,100.00
2022-11-24T03:24:04.764Z,100.00
2022-11-24T03:27:12.821Z,100.00
2022-11-24T03:30:28.379Z,100.00
2022-11-24T03:33:36.827Z,100.00
2022-11-24T03:36:45.408Z,100.00
2022-11-24T03:39:53.831Z,100.00
2022-11-24T03:43:02.382Z,100.00
2022-11-24T03:46:10.873Z,100.00
2022-11-24T03:49:19.358Z,100.00
2022-11-24T03:52:27.795Z,100.00
2022-11-24T03:55:42.819Z,100.00
2022-11-24T03:58:51.476Z,100.00
2022-11-24T04:02:06.850Z,100.00
2022-11-24T04:05:15.474Z,100.00
2022-11-24T04:08:23.809Z,100.00
2022-11-24T04:11:32.420Z,100.00
2022-11-24T04:14:46.829Z,100.00
2022-11-24T04:17:50.040Z,100.00
2022-11-24T04:21:04.820Z,100.00
2022-11-24T04:24:13.435Z,100.00
2022-11-24T04:27:27.832Z,100.00
2022-11-24T04:30:42.866Z,100.00
2022-11-24T04:33:57.804Z,100.00
2022-11-24T04:37:05.803Z,100.00
2022-11-24T04:40:21.820Z,100.00
2022-11-24T04:44:16.968Z,100.00
2022-11-24T04:47:32.986Z,100.00
2022-11-24T04:50:42.985Z,100.00
2022-11-24T04:53:51.546Z,100.00
2022-11-24T04:56:59.959Z,100.00
2022-11-24T05:00:15.974Z,100.00
2022-11-24T05:03:30.976Z,100.00
2022-11-24T05:06:46.984Z,100.00
2022-11-24T05:09:59.641Z,100.00
2022-11-24T05:13:13.467Z,100.00
2022-11-24T05:16:22.010Z,100.00
2022-11-24T05:19:32.508Z,100.00
2022-11-24T05:22:47.932Z,100.00
2022-11-24T05:25:50.117Z,100.00
2022-11-24T05:29:04.987Z,100.00
2022-11-24T05:32:13.527Z,100.00
2022-11-24T05:35:21.946Z,100.00
2022-11-24T05:38:37.954Z,100.00
2022-11-24T05:41:41.721Z,100.00
2022-11-24T05:45:03.951Z,100.00
2022-11-24T05:48:08.040Z,100.00
2022-11-24T05:51:25.926Z,100.00
2022-11-24T05:54:34.839Z,100.00
2022-11-24T05:57:43.950Z,100.00
2022-11-24T06:00:52.581Z,100.00
2022-11-24T06:04:06.932Z,100.00
2022-11-24T06:07:11.271Z,100.00
2022-11-24T06:10:27.950Z,100.00
2022-11-24T06:13:29.911Z,100.00
2022-11-24T06:16:44.976Z,100.00
2022-11-24T06:19:53.927Z,100.00
2022-11-24T06:23:02.489Z,100.00
2022-11-24T06:26:10.902Z,100.00
2022-11-24T06:29:19.544Z,100.00
2022-11-24T06:32:27.903Z,100.00
2022-11-24T06:35:36.549Z,100.00
2022-11-24T06:38:50.939Z,100.00
2022-11-24T06:42:05.939Z,100.00
2022-11-24T06:45:14.271Z,100.00
2022-11-24T06:48:29.947Z,100.00
2022-11-24T06:51:37.931Z,100.00
2022-11-24T06:54:46.469Z,100.00
2022-11-24T06:58:00.916Z,100.00
2022-11-24T07:01:09.970Z,100.00
2022-11-24T07:04:25.923Z,100.00
2022-11-24T07:07:34.045Z,100.00
2022-11-24T07:10:42.507Z,100.00
2022-11-24T07:14:00.096Z,100.00
2022-11-24T07:17:03.425Z,100.00
2022-11-24T07:20:17.965Z,100.00
2022-11-24T07:23:19.835Z,100.00
2022-11-24T07:26:34.947Z,100.00
2022-11-24T07:29:36.985Z,100.00
2022-11-24T07:32:51.990Z,100.00
2022-11-24T07:36:01.161Z,99.40
2022-11-24T07:39:11.943Z,99.40
2022-11-24T07:42:33.924Z,98.37
2022-11-24T07:45:42.742Z,96.25
2022-11-24T07:48:57.930Z,95.34
2022-11-24T07:52:07.934Z,96.24
2022-11-24T07:55:16.963Z,96.11
2022-11-24T07:58:32.381Z,96.03
2022-11-24T08:01:48.010Z,96.25
2022-11-24T08:04:56.569Z,96.98
2022-11-24T08:08:10.964Z,96.51
2022-11-24T08:11:15.061Z,96.53
2022-11-24T08:14:29.988Z,96.56
2022-11-24T08:17:31.980Z,95.94
2022-11-24T08:20:47.508Z,95.12
2022-11-24T08:24:03.953Z,95.49
2022-11-24T08:27:19.913Z,94.79
2022-11-24T08:30:24.609Z,95.32
2022-11-24T08:33:40.073Z,94.66
2022-11-24T08:36:48.752Z,94.66
2022-11-24T08:39:56.955Z,93.86
2022-11-24T08:43:12.180Z,94.45
2022-11-24T08:46:22.958Z,94.49
2022-11-24T08:49:31.520Z,95.22
2022-11-24T08:52:40.947Z,95.19
2022-11-24T08:55:51.312Z,95.07
2022-11-24T08:59:07.032Z,95.03
2022-11-24T09:02:15.517Z,94.23
2022-11-24T09:05:50.652Z,94.74
2022-11-24T09:08:54.683Z,95.10
2022-11-24T09:12:02.924Z,94.28
2022-11-24T09:15:18.923Z,95.22
2022-11-24T09:18:30.403Z,93.74
2022-11-24T09:21:39.546Z,93.71
2022-11-24T09:24:53.962Z,93.10
2022-11-24T09:28:02.964Z,92.95
2022-11-24T09:31:13.945Z,93.03
2022-11-24T09:34:22.928Z,91.33
2022-11-24T09:37:33.094Z,91.54
2022-11-24T09:41:06.026Z,91.58
2022-11-24T09:44:38.956Z,90.87
2022-11-24T09:47:57.862Z,91.02
2022-11-24T09:51:17.912Z,91.52
2022-11-24T09:54:35.914Z,88.94
2022-11-24T09:57:50.917Z,87.98
2022-11-24T10:01:05.988Z,88.32
2022-11-24T10:04:34.987Z,87.54
2022-11-24T10:08:16.957Z,89.25
2022-11-24T10:11:50.935Z,87.97
2022-11-24T10:15:21.099Z,89.73
2022-11-24T10:19:08.565Z,89.39
2022-11-24T10:22:45.056Z,89.12
2022-11-24T10:26:08.314Z,88.74
2022-11-24T10:29:30.451Z,89.79
2022-11-24T10:32:46.724Z,89.40
2022-11-24T10:36:04.922Z,90.59
2022-11-24T10:39:37.226Z,89.93
2022-11-24T10:42:52.944Z,89.61
2022-11-24T10:46:37.927Z,90.03
2022-11-24T10:49:56.661Z,88.74
2022-11-24T10:53:31.917Z,89.11
2022-11-24T10:56:44.387Z,88.77
2022-11-24T10:59:58.910Z,89.29
2022-11-24T11:03:25.928Z,89.57
2022-11-24T11:06:27.834Z,90.12
2022-11-24T11:09:42.954Z,89.78
2022-11-24T11:12:51.460Z,90.10
2022-11-24T11:16:00.987Z,90.16
2022-11-24T11:19:48.865Z,88.73
2022-11-24T11:23:08.139Z,88.45
2022-11-24T11:26:32.283Z,89.28
2022-11-24T11:36:43.512Z,88.12
2022-11-24T11:39:57.970Z,87.55
2022-11-24T11:43:25.937Z,86.19
2022-11-24T11:46:43.587Z,86.50
2022-11-24T11:49:54.928Z,86.51
2022-11-24T11:53:20.726Z,87.15
2022-11-24T11:56:52.922Z,86.89
2022-11-24T12:00:07.951Z,86.59
2022-11-24T12:03:38.122Z,86.93
2022-11-24T12:07:14.564Z,86.40
2022-11-24T12:10:57.956Z,87.02
2022-11-24T12:14:13.088Z,86.13
2022-11-24T12:17:46.917Z,86.37
2022-11-24T12:21:29.906Z,86.64
2022-11-24T12:24:57.101Z,86.01
2022-11-24T12:28:14.943Z,86.16
2022-11-24T12:32:06.924Z,85.66
2022-11-24T12:35:36.902Z,85.71
2022-11-24T12:38:49.453Z,86.65
2022-11-24T12:42:19.924Z,86.96
2022-11-24T12:45:55.955Z,86.70
2022-11-24T12:49:07.505Z,86.70
2022-11-24T12:52:24.914Z,86.98
2022-11-24T12:55:39.924Z,87.35
2022-11-24T12:59:00.286Z,88.09
2022-11-24T13:02:46.025Z,88.04
2022-11-24T13:06:07.545Z,87.76
2022-11-24T13:09:21.895Z,88.45
2022-11-24T13:12:30.553Z,89.40
2022-11-24T13:16:34.764Z,90.46
2022-11-24T13:19:34.645Z,90.62
2022-11-24T13:22:45.919Z,90.72
2022-11-24T13:26:22.952Z,90.68
2022-11-24T13:29:27.725Z,90.64
2022-11-24T13:32:42.920Z,90.87
2022-11-24T13:36:03.451Z,91.71
2022-11-24T13:39:27.020Z,90.65
2022-11-24T13:42:44.028Z,91.13
2022-11-24T13:46:05.953Z,91.24
2022-11-24T13:49:14.590Z,91.05
2022-11-24T13:52:47.932Z,91.65
2022-11-24T13:56:05.884Z,91.80
2022-11-24T13:59:30.917Z,92.17
2022-11-24T14:02:43.779Z,92.23
2022-11-24T14:06:01.921Z,92.44
2022-11-24T14:09:32.919Z,92.00
2022-11-24T14:12:43.341Z,92.56
2022-11-24T14:16:08.144Z,92.37
2022-11-24T14:19:19.523Z,92.07
2022-11-24T14:22:38.954Z,91.94
2022-11-24T14:25:49.845Z,92.33
2022-11-24T14:29:13.916Z,92.83
2022-11-24T14:32:31.295Z,92.28
2022-11-24T14:35:45.106Z,92.19
2022-11-24T14:38:59.922Z,92.59
2022-11-24T14:42:14.881Z,93.18
2022-11-24T14:45:36.931Z,93.27
2022-11-24T14:48:46.097Z,93.49
2022-11-24T14:52:08.942Z,93.32
2022-11-24T14:55:50.911Z,93.48
2022-11-24T14:58:53.810Z,93.75
2022-11-24T15:02:11.182Z,93.78
2022-11-24T15:05:20.895Z,93.98
2022-11-24T15:08:51.918Z,94.00
2022-11-24T15:12:09.897Z,94.61
2022-11-24T15:15:26.915Z,94.55
2022-11-24T15:18:43.189Z,94.78
2022-11-24T15:21:51.983Z,94.25
2022-11-24T15:25:00.817Z,94.06
2022-11-24T15:28:08.904Z,93.92
2022-11-24T15:31:17.589Z,94.65
2022-11-24T15:34:25.899Z,94.87
2022-11-24T15:37:34.762Z,94.65
2022-11-24T15:40:51.928Z,94.97
2022-11-24T15:44:14.990Z,94.97
2022-11-24T15:47:23.489Z,95.11
2022-11-24T15:50:38.900Z,95.28
2022-11-24T15:53:57.180Z,95.26
2022-11-24T15:57:08.890Z,95.69
2022-11-24T16:00:26.914Z,96.32
2022-11-24T16:03:47.056Z,96.65
2022-11-24T16:07:03.010Z,96.76
2022-11-24T16:10:34.138Z,97.01
2022-11-24T16:13:53.640Z,97.32
2022-11-24T16:17:09.891Z,97.58
2022-11-24T16:20:26.923Z,97.54
2022-11-24T16:23:35.136Z,97.80
2022-11-24T16:26:43.462Z,97.98
2022-11-24T16:29:57.899Z,98.21
2022-11-24T16:33:03.956Z,98.68
2022-11-24T16:36:20.942Z,99.13
2022-11-24T16:39:23.008Z,99.55
2022-11-24T16:42:39.241Z,99.95
2022-11-24T16:46:23.293Z,100.00
2022-11-24T16:49:25.573Z,100.00
2022-11-24T16:52:41.304Z,100.00
2022-11-24T16:55:57.321Z,100.00
2022-11-24T16:59:12.299Z,100.00
2022-11-24T17:02:21.913Z,100.00
2022-11-24T17:05:30.906Z,100.00
2022-11-24T17:08:46.895Z,100.00
2022-11-24T17:11:55.544Z,100.00
2022-11-24T17:18:43.054Z,100.00
2022-11-24T17:21:51.962Z,100.00
2022-11-24T17:25:06.953Z,100.00
2022-11-24T17:28:09.430Z,100.00
2022-11-24T17:31:29.187Z,100.00
2022-11-24T17:34:31.619Z,100.00
2022-11-24T17:37:46.928Z,100.00
2022-11-24T17:40:49.677Z,100.00
2022-11-24T17:44:05.333Z,100.00
2022-11-24T17:47:14.491Z,100.00
2022-11-24T17:50:33.721Z,100.00
2022-11-24T17:53:44.287Z,100.00
2022-11-24T17:56:53.316Z,100.00
2022-11-24T18:00:01.926Z,100.00
2022-11-24T18:03:11.029Z,100.00
2022-11-24T18:06:27.058Z,100.00
2022-11-24T18:09:36.528Z,99.83
2022-11-24T18:12:51.146Z,99.41
2022-11-24T18:16:03.570Z,99.41
2022-11-24T18:19:17.720Z,99.48
2022-11-24T18:22:57.949Z,100.00
2022-11-24T18:26:10.615Z,99.94
2022-11-24T18:29:18.820Z,100.00
2022-11-24T18:32:36.690Z,100.00
2022-11-24T18:35:56.275Z,99.90
2022-11-24T18:39:13.911Z,99.21
2022-11-24T18:42:25.613Z,98.52
2022-11-24T18:45:41.292Z,98.68
2022-11-24T18:48:49.969Z,98.61
2022-11-24T18:52:05.288Z,97.17
2022-11-24T18:55:20.278Z,97.67
2022-11-24T18:58:28.899Z,96.66
2022-11-24T19:01:46.193Z,97.06
2022-11-24T19:05:01.904Z,97.00
2022-11-24T19:08:05.270Z,96.85
2022-11-24T19:11:41.282Z,97.12
2022-11-24T19:14:43.744Z,97.07
2022-11-24T19:18:01.310Z,97.05
2022-11-24T19:21:03.893Z,96.97
2022-11-24T19:24:20.313Z,97.24
2022-11-24T19:27:29.367Z,97.53
2022-11-24T19:30:37.993Z,97.36
2022-11-24T19:33:53.373Z,97.80
2022-11-24T19:36:55.910Z,97.90
2022-11-24T19:40:13.288Z,97.96
2022-11-24T19:43:24.875Z,98.38
2022-11-24T19:46:47.886Z,98.57
2022-11-24T19:49:50.865Z,98.74
2022-11-24T19:53:07.030Z,99.19
2022-11-24T19:56:18.919Z,99.29
2022-11-24T19:59:33.986Z,99.46
2022-11-24T20:02:38.203Z,99.82
2022-11-24T20:06:04.306Z,100.00
2022-11-24T20:09:10.007Z,100.00
2022-11-24T20:12:25.404Z,100.00
2022-11-24T20:15:34.028Z,100.00
2022-11-24T20:18:45.344Z,100.00
2022-11-24T20:22:01.479Z,100.00
2022-11-24T20:25:10.401Z,100.00
2022-11-24T20:28:25.914Z,100.00
2022-11-24T20:31:40.313Z,100.00
2022-11-24T20:34:55.317Z,100.00
2022-11-24T20:38:04.322Z,100.00
2022-11-24T20:41:19.608Z,100.00
2022-11-24T20:44:35.054Z,100.00
2022-11-24T20:47:50.280Z,100.00
2022-11-24T20:50:59.268Z,100.00
2022-11-24T20:54:16.320Z,100.00
2022-11-24T20:57:18.891Z,100.00
2022-11-24T21:00:35.355Z,100.00
2022-11-24T21:03:45.738Z,100.00
2022-11-24T21:07:01.303Z,100.00
2022-11-24T21:10:10.333Z,100.00
2022-11-24T21:13:18.433Z,100.00
2022-11-24T21:16:31.018Z,100.00
2022-11-24T21:19:45.936Z,100.00
2022-11-24T21:22:53.921Z,100.00
2022-11-24T21:26:05.722Z,100.00
2022-11-24T21:29:15.881Z,100.00
2022-11-24T21:32:30.901Z,100.00
2022-11-24T21:35:39.497Z,100.00
2022-11-24T21:38:49.000Z,100.00
2022-11-24T21:41:57.614Z,100.00
2022-11-24T21:45:13.904Z,100.00
2022-11-24T21:48:22.515Z,100.00
2022-11-24T21:51:36.893Z,100.00
2022-11-24T21:54:38.782Z,100.00
2022-11-24T21:57:53.934Z,100.00
2022-11-24T22:01:01.998Z,100.00
2022-11-24T22:04:16.920Z,100.00
2022-11-24T22:07:18.859Z,100.00
2022-11-24T22:10:35.861Z,100.00
2022-11-24T22:13:51.891Z,100.00
2022-11-24T22:16:53.860Z,100.00
2022-11-24T22:20:09.865Z,100.00
2022-11-24T22:23:18.885Z,100.00
2022-11-24T22:26:28.541Z,100.00
2022-11-24T22:29:36.873Z,100.00
2022-11-24T22:32:45.527Z,100.00
2022-11-24T22:36:02.877Z,100.00
2022-11-24T22:39:12.586Z,100.00
2022-11-24T22:42:27.847Z,100.00
2022-11-24T22:45:36.186Z,100.00
2022-11-24T22:48:55.869Z,100.00
2022-11-24T22:52:10.898Z,100.00
2022-11-24T22:55:19.430Z,100.00
2022-11-24T22:58:33.875Z,100.00
2022-11-24T23:01:35.817Z,100.00
2022-11-24T23:04:50.879Z,100.00
2022-11-24T23:07:52.880Z,100.00
2022-11-24T23:11:13.883Z,100.00
2022-11-24T23:14:28.875Z,100.00
2022-11-24T23:17:30.772Z,100.00
2022-11-24T23:20:45.851Z,100.00
2022-11-24T23:23:49.178Z,100.00
2022-11-24T23:27:03.870Z,100.00
2022-11-24T23:30:07.764Z,100.00
2022-11-24T23:33:22.870Z,100.00
2022-11-24T23:36:31.884Z,100.00
2022-11-24T23:39:40.533Z,100.00
2022-11-24T23:42:55.873Z,100.00
2022-11-24T23:46:17.556Z,100.00
2022-11-24T23:49:25.863Z,100.00
2022-11-24T23:52:41.860Z,100.00
2022-11-24T23:56:01.907Z,100.00
2022-11-24T23:59:04.743Z,100.00
